sensor_id;sensor_type;location;lat;lon;timestamp;P1;durP1;ratioP1;P2;durP2;ratioP2
42912;SDS011;50720;54.324;18.558;2023-01-10T00:00:53;29.48;;;16.08;;
42912;SDS011;50720;54.324;18.558;2023-01-10T00:03:26;30.17;;;15.32;;
42912;SDS011;50720;54.324;18.558;2023-01-10T00:05:55;28.35;;;14.02;;
42912;SDS011;50720;54.324;18.558;2023-01-10T00:08:25;31.45;;;14.68;;
42912;SDS011;50720;54.324;18.558;2023-01-10T00:10:56;26.83;;;14.93;;
42912;SDS011;50720;54.324;18.558;2023-01-10T00:13:46;29.25;;;14.57;;
42912;SDS011;50720;54.324;18.558;2023-01-10T00:16:14;29.45;;;15.75;;
42912;SDS011;50720;54.324;18.558;2023-01-10T00:18:44;21.58;;;13.85;;
42912;SDS011;50720;54.324;18.558;2023-01-10T00:21:14;23.17;;;13.32;;
42912;SDS011;50720;54.324;18.558;2023-01-10T00:23:44;22.20;;;13.85;;
42912;SDS011;50720;54.324;18.558;2023-01-10T00:26:18;22.20;;;13.93;;
42912;SDS011;50720;54.324;18.558;2023-01-10T00:28:47;22.63;;;13.10;;
42912;SDS011;50720;54.324;18.558;2023-01-10T00:31:17;22.40;;;12.35;;
42912;SDS011;50720;54.324;18.558;2023-01-10T00:33:46;22.85;;;12.18;;
42912;SDS011;50720;54.324;18.558;2023-01-10T00:36:16;23.15;;;12.85;;
42912;SDS011;50720;54.324;18.558;2023-01-10T00:38:46;21.00;;;12.65;;
42912;SDS011;50720;54.324;18.558;2023-01-10T00:41:18;20.70;;;11.55;;
42912;SDS011;50720;54.324;18.558;2023-01-10T00:44:04;20.42;;;12.15;;
42912;SDS011;50720;54.324;18.558;2023-01-10T00:46:35;20.48;;;12.48;;
42912;SDS011;50720;54.324;18.558;2023-01-10T00:49:04;19.63;;;12.10;;
42912;SDS011;50720;54.324;18.558;2023-01-10T00:51:38;19.17;;;12.50;;
42912;SDS011;50720;54.324;18.558;2023-01-10T00:54:07;20.33;;;11.75;;
42912;SDS011;50720;54.324;18.558;2023-01-10T00:56:39;22.30;;;12.77;;
42912;SDS011;50720;54.324;18.558;2023-01-10T00:59:08;21.58;;;12.77;;
42912;SDS011;50720;54.324;18.558;2023-01-10T01:01:38;19.17;;;11.77;;
42912;SDS011;50720;54.324;18.558;2023-01-10T01:04:08;20.25;;;12.50;;
42912;SDS011;50720;54.324;18.558;2023-01-10T01:06:38;18.17;;;10.73;;
42912;SDS011;50720;54.324;18.558;2023-01-10T01:09:07;19.90;;;12.10;;
42912;SDS011;50720;54.324;18.558;2023-01-10T01:11:38;20.40;;;12.05;;
42912;SDS011;50720;54.324;18.558;2023-01-10T01:14:08;19.35;;;11.52;;
42912;SDS011;50720;54.324;18.558;2023-01-10T01:16:38;22.15;;;11.75;;
42912;SDS011;50720;54.324;18.558;2023-01-10T01:19:07;18.40;;;11.20;;
42912;SDS011;50720;54.324;18.558;2023-01-10T01:21:39;21.15;;;12.57;;
42912;SDS011;50720;54.324;18.558;2023-01-10T01:24:09;21.05;;;12.20;;
42912;SDS011;50720;54.324;18.558;2023-01-10T01:26:40;21.17;;;12.70;;
42912;SDS011;50720;54.324;18.558;2023-01-10T01:29:10;24.70;;;12.85;;
42912;SDS011;50720;54.324;18.558;2023-01-10T01:31:40;20.90;;;11.93;;
42912;SDS011;50720;54.324;18.558;2023-01-10T01:34:09;24.85;;;13.88;;
42912;SDS011;50720;54.324;18.558;2023-01-10T01:36:39;22.88;;;11.07;;
42912;SDS011;50720;54.324;18.558;2023-01-10T01:39:08;19.48;;;12.18;;
42912;SDS011;50720;54.324;18.558;2023-01-10T01:41:38;23.05;;;12.38;;
42912;SDS011;50720;54.324;18.558;2023-01-10T01:44:30;23.83;;;12.48;;
42912;SDS011;50720;54.324;18.558;2023-01-10T01:47:04;20.13;;;10.60;;
42912;SDS011;50720;54.324;18.558;2023-01-10T01:49:36;20.02;;;12.05;;
42912;SDS011;50720;54.324;18.558;2023-01-10T01:52:09;19.98;;;11.25;;
42912;SDS011;50720;54.324;18.558;2023-01-10T01:54:46;21.45;;;10.75;;
42912;SDS011;50720;54.324;18.558;2023-01-10T01:57:16;19.92;;;12.10;;
42912;SDS011;50720;54.324;18.558;2023-01-10T01:59:51;22.20;;;11.55;;
42912;SDS011;50720;54.324;18.558;2023-01-10T02:02:24;19.48;;;12.23;;
42912;SDS011;50720;54.324;18.558;2023-01-10T02:04:58;17.85;;;11.32;;
42912;SDS011;50720;54.324;18.558;2023-01-10T02:07:32;18.55;;;10.20;;
42912;SDS011;50720;54.324;18.558;2023-01-10T02:10:04;19.00;;;10.52;;
42912;SDS011;50720;54.324;18.558;2023-01-10T02:12:37;16.85;;;10.77;;
42912;SDS011;50720;54.324;18.558;2023-01-10T02:15:09;23.85;;;11.27;;
42912;SDS011;50720;54.324;18.558;2023-01-10T02:17:40;17.95;;;11.30;;
42912;SDS011;50720;54.324;18.558;2023-01-10T02:20:10;20.88;;;10.48;;
42912;SDS011;50720;54.324;18.558;2023-01-10T02:22:56;18.30;;;9.98;;
42912;SDS011;50720;54.324;18.558;2023-01-10T02:29:06;18.20;;;8.40;;
42912;SDS011;50720;54.324;18.558;2023-01-10T02:35:20;17.27;;;9.18;;
42912;SDS011;50720;54.324;18.558;2023-01-10T02:38:03;17.85;;;9.15;;
42912;SDS011;50720;54.324;18.558;2023-01-10T02:40:44;19.65;;;10.98;;
42912;SDS011;50720;54.324;18.558;2023-01-10T02:43:19;20.33;;;11.20;;
42912;SDS011;50720;54.324;18.558;2023-01-10T02:45:53;21.70;;;10.85;;
42912;SDS011;50720;54.324;18.558;2023-01-10T02:48:27;17.52;;;10.13;;
42912;SDS011;50720;54.324;18.558;2023-01-10T02:50:57;21.65;;;11.23;;
42912;SDS011;50720;54.324;18.558;2023-01-10T02:53:32;23.20;;;11.52;;
42912;SDS011;50720;54.324;18.558;2023-01-10T02:56:11;20.05;;;9.43;;
42912;SDS011;50720;54.324;18.558;2023-01-10T03:02:15;18.58;;;9.57;;
42912;SDS011;50720;54.324;18.558;2023-01-10T03:04:53;17.73;;;9.85;;
42912;SDS011;50720;54.324;18.558;2023-01-10T03:07:32;16.73;;;9.77;;
42912;SDS011;50720;54.324;18.558;2023-01-10T03:10:09;14.55;;;8.60;;
42912;SDS011;50720;54.324;18.558;2023-01-10T03:12:45;19.40;;;10.30;;
42912;SDS011;50720;54.324;18.558;2023-01-10T03:15:18;17.30;;;9.90;;
42912;SDS011;50720;54.324;18.558;2023-01-10T03:17:50;19.48;;;9.43;;
42912;SDS011;50720;54.324;18.558;2023-01-10T03:20:25;21.02;;;10.25;;
42912;SDS011;50720;54.324;18.558;2023-01-10T03:22:57;14.63;;;9.65;;
42912;SDS011;50720;54.324;18.558;2023-01-10T03:25:30;17.60;;;9.30;;
42912;SDS011;50720;54.324;18.558;2023-01-10T03:28:05;20.15;;;10.27;;
42912;SDS011;50720;54.324;18.558;2023-01-10T03:30:39;19.48;;;10.70;;
42912;SDS011;50720;54.324;18.558;2023-01-10T03:33:13;21.70;;;10.52;;
42912;SDS011;50720;54.324;18.558;2023-01-10T03:35:57;19.02;;;9.85;;
42912;SDS011;50720;54.324;18.558;2023-01-10T03:38:37;18.85;;;9.88;;
42912;SDS011;50720;54.324;18.558;2023-01-10T03:41:13;23.65;;;11.75;;
42912;SDS011;50720;54.324;18.558;2023-01-10T03:43:51;16.63;;;9.50;;
42912;SDS011;50720;54.324;18.558;2023-01-10T03:46:42;21.40;;;10.00;;
42912;SDS011;50720;54.324;18.558;2023-01-10T03:49:17;21.02;;;9.95;;
42912;SDS011;50720;54.324;18.558;2023-01-10T03:51:49;20.10;;;10.57;;
42912;SDS011;50720;54.324;18.558;2023-01-10T03:54:20;16.98;;;10.05;;
42912;SDS011;50720;54.324;18.558;2023-01-10T03:56:50;17.00;;;10.43;;
42912;SDS011;50720;54.324;18.558;2023-01-10T03:59:20;18.33;;;11.00;;
42912;SDS011;50720;54.324;18.558;2023-01-10T04:01:54;16.60;;;9.93;;
42912;SDS011;50720;54.324;18.558;2023-01-10T04:04:24;17.40;;;9.93;;
42912;SDS011;50720;54.324;18.558;2023-01-10T04:06:55;19.55;;;10.52;;
42912;SDS011;50720;54.324;18.558;2023-01-10T04:09:24;24.35;;;11.45;;
42912;SDS011;50720;54.324;18.558;2023-01-10T04:11:54;17.67;;;10.23;;
42912;SDS011;50720;54.324;18.558;2023-01-10T04:14:24;18.70;;;11.32;;
42912;SDS011;50720;54.324;18.558;2023-01-10T04:16:53;15.98;;;10.27;;
42912;SDS011;50720;54.324;18.558;2023-01-10T04:19:23;17.00;;;10.13;;
42912;SDS011;50720;54.324;18.558;2023-01-10T04:21:53;16.20;;;10.02;;
42912;SDS011;50720;54.324;18.558;2023-01-10T04:24:24;22.42;;;10.77;;
42912;SDS011;50720;54.324;18.558;2023-01-10T04:26:53;22.08;;;11.40;;
42912;SDS011;50720;54.324;18.558;2023-01-10T04:29:23;21.85;;;11.60;;
42912;SDS011;50720;54.324;18.558;2023-01-10T04:31:53;14.97;;;9.40;;
42912;SDS011;50720;54.324;18.558;2023-01-10T04:34:23;24.75;;;10.23;;
42912;SDS011;50720;54.324;18.558;2023-01-10T04:36:52;17.45;;;10.25;;
42912;SDS011;50720;54.324;18.558;2023-01-10T04:39:24;20.17;;;10.25;;
42912;SDS011;50720;54.324;18.558;2023-01-10T04:41:53;17.88;;;10.02;;
42912;SDS011;50720;54.324;18.558;2023-01-10T04:44:23;23.60;;;12.57;;
42912;SDS011;50720;54.324;18.558;2023-01-10T04:46:52;44.20;;;22.77;;
42912;SDS011;50720;54.324;18.558;2023-01-10T04:49:22;23.42;;;12.88;;
42912;SDS011;50720;54.324;18.558;2023-01-10T04:51:51;16.92;;;9.75;;
42912;SDS011;50720;54.324;18.558;2023-01-10T04:54:23;18.23;;;11.23;;
42912;SDS011;50720;54.324;18.558;2023-01-10T04:59:21;18.65;;;10.52;;
42912;SDS011;50720;54.324;18.558;2023-01-10T05:01:50;19.23;;;11.02;;
42912;SDS011;50720;54.324;18.558;2023-01-10T05:04:21;17.40;;;10.07;;
42912;SDS011;50720;54.324;18.558;2023-01-10T05:06:51;26.67;;;12.25;;
42912;SDS011;50720;54.324;18.558;2023-01-10T05:09:21;21.73;;;10.65;;
42912;SDS011;50720;54.324;18.558;2023-01-10T05:11:51;19.35;;;10.30;;
42912;SDS011;50720;54.324;18.558;2023-01-10T05:14:21;15.20;;;8.98;;
42912;SDS011;50720;54.324;18.558;2023-01-10T05:16:50;17.63;;;9.10;;
42912;SDS011;50720;54.324;18.558;2023-01-10T05:19:21;17.50;;;9.23;;
42912;SDS011;50720;54.324;18.558;2023-01-10T05:21:50;13.90;;;8.27;;
42912;SDS011;50720;54.324;18.558;2023-01-10T05:24:24;20.50;;;9.02;;
42912;SDS011;50720;54.324;18.558;2023-01-10T05:26:53;14.98;;;7.63;;
42912;SDS011;50720;54.324;18.558;2023-01-10T05:29:23;22.33;;;9.07;;
42912;SDS011;50720;54.324;18.558;2023-01-10T05:31:53;16.23;;;8.65;;
42912;SDS011;50720;54.324;18.558;2023-01-10T05:34:23;22.88;;;8.40;;
42912;SDS011;50720;54.324;18.558;2023-01-10T05:36:52;18.27;;;8.57;;
42912;SDS011;50720;54.324;18.558;2023-01-10T05:39:23;17.13;;;8.75;;
42912;SDS011;50720;54.324;18.558;2023-01-10T05:41:53;18.17;;;8.77;;
42912;SDS011;50720;54.324;18.558;2023-01-10T05:44:23;17.53;;;8.00;;
42912;SDS011;50720;54.324;18.558;2023-01-10T05:46:52;22.90;;;9.18;;
42912;SDS011;50720;54.324;18.558;2023-01-10T05:49:22;15.07;;;8.32;;
42912;SDS011;50720;54.324;18.558;2023-01-10T05:51:51;14.30;;;8.30;;
42912;SDS011;50720;54.324;18.558;2023-01-10T05:54:21;15.35;;;8.40;;
42912;SDS011;50720;54.324;18.558;2023-01-10T05:56:52;17.10;;;8.65;;
42912;SDS011;50720;54.324;18.558;2023-01-10T05:59:22;17.98;;;8.63;;
42912;SDS011;50720;54.324;18.558;2023-01-10T06:01:54;15.95;;;8.05;;
42912;SDS011;50720;54.324;18.558;2023-01-10T06:04:24;19.15;;;7.93;;
42912;SDS011;50720;54.324;18.558;2023-01-10T06:06:53;17.27;;;8.10;;
42912;SDS011;50720;54.324;18.558;2023-01-10T06:09:23;15.90;;;7.78;;
42912;SDS011;50720;54.324;18.558;2023-01-10T06:11:54;15.23;;;7.93;;
42912;SDS011;50720;54.324;18.558;2023-01-10T06:14:24;14.27;;;8.90;;
42912;SDS011;50720;54.324;18.558;2023-01-10T06:16:53;19.85;;;7.82;;
42912;SDS011;50720;54.324;18.558;2023-01-10T06:19:23;16.67;;;8.85;;
42912;SDS011;50720;54.324;18.558;2023-01-10T06:21:52;17.75;;;10.05;;
42912;SDS011;50720;54.324;18.558;2023-01-10T06:24:22;15.35;;;9.35;;
42912;SDS011;50720;54.324;18.558;2023-01-10T06:26:51;22.65;;;9.23;;
42912;SDS011;50720;54.324;18.558;2023-01-10T06:29:22;14.25;;;7.90;;
42912;SDS011;50720;54.324;18.558;2023-01-10T06:31:52;20.33;;;10.20;;
42912;SDS011;50720;54.324;18.558;2023-01-10T06:34:21;19.65;;;9.35;;
42912;SDS011;50720;54.324;18.558;2023-01-10T06:36:50;15.82;;;8.75;;
42912;SDS011;50720;54.324;18.558;2023-01-10T06:39:20;18.25;;;9.38;;
42912;SDS011;50720;54.324;18.558;2023-01-10T06:41:50;17.83;;;9.32;;
42912;SDS011;50720;54.324;18.558;2023-01-10T06:44:21;18.88;;;9.32;;
42912;SDS011;50720;54.324;18.558;2023-01-10T06:46:50;24.33;;;9.93;;
42912;SDS011;50720;54.324;18.558;2023-01-10T06:49:20;21.55;;;12.18;;
42912;SDS011;50720;54.324;18.558;2023-01-10T06:51:49;16.88;;;8.32;;
42912;SDS011;50720;54.324;18.558;2023-01-10T06:54:19;22.40;;;9.52;;
42912;SDS011;50720;54.324;18.558;2023-01-10T06:56:48;16.80;;;9.07;;
42912;SDS011;50720;54.324;18.558;2023-01-10T06:59:18;19.75;;;10.80;;
42912;SDS011;50720;54.324;18.558;2023-01-10T07:01:49;23.15;;;10.32;;
42912;SDS011;50720;54.324;18.558;2023-01-10T07:04:19;18.38;;;10.18;;
42912;SDS011;50720;54.324;18.558;2023-01-10T07:06:48;17.80;;;9.95;;
42912;SDS011;50720;54.324;18.558;2023-01-10T07:09:18;18.02;;;8.15;;
42912;SDS011;50720;54.324;18.558;2023-01-10T07:11:47;16.85;;;9.82;;
42912;SDS011;50720;54.324;18.558;2023-01-10T07:14:17;14.93;;;7.88;;
42912;SDS011;50720;54.324;18.558;2023-01-10T07:16:46;21.75;;;9.65;;
42912;SDS011;50720;54.324;18.558;2023-01-10T07:19:18;21.95;;;9.23;;
42912;SDS011;50720;54.324;18.558;2023-01-10T07:21:47;17.80;;;9.63;;
42912;SDS011;50720;54.324;18.558;2023-01-10T07:24:17;20.08;;;10.27;;
42912;SDS011;50720;54.324;18.558;2023-01-10T07:26:46;18.42;;;8.75;;
42912;SDS011;50720;54.324;18.558;2023-01-10T07:29:16;19.33;;;10.00;;
42912;SDS011;50720;54.324;18.558;2023-01-10T07:31:46;18.63;;;9.27;;
42912;SDS011;50720;54.324;18.558;2023-01-10T07:34:17;19.10;;;10.68;;
42912;SDS011;50720;54.324;18.558;2023-01-10T07:36:46;20.95;;;10.32;;
42912;SDS011;50720;54.324;18.558;2023-01-10T07:39:16;20.45;;;10.15;;
42912;SDS011;50720;54.324;18.558;2023-01-10T07:41:45;21.00;;;10.25;;
42912;SDS011;50720;54.324;18.558;2023-01-10T07:44:15;20.30;;;9.68;;
42912;SDS011;50720;54.324;18.558;2023-01-10T07:46:45;20.92;;;9.20;;
42912;SDS011;50720;54.324;18.558;2023-01-10T07:49:17;21.70;;;9.27;;
42912;SDS011;50720;54.324;18.558;2023-01-10T07:54:15;24.38;;;8.98;;
42912;SDS011;50720;54.324;18.558;2023-01-10T07:56:45;18.63;;;9.05;;
42912;SDS011;50720;54.324;18.558;2023-01-10T07:59:16;20.98;;;9.73;;
42912;SDS011;50720;54.324;18.558;2023-01-10T08:01:45;19.63;;;9.90;;
42912;SDS011;50720;54.324;18.558;2023-01-10T08:04:16;19.20;;;8.55;;
42912;SDS011;50720;54.324;18.558;2023-01-10T08:06:46;23.73;;;9.40;;
42912;SDS011;50720;54.324;18.558;2023-01-10T08:09:15;16.98;;;8.38;;
42912;SDS011;50720;54.324;18.558;2023-01-10T08:11:45;14.98;;;8.43;;
42912;SDS011;50720;54.324;18.558;2023-01-10T08:14:15;18.63;;;9.60;;
42912;SDS011;50720;54.324;18.558;2023-01-10T08:16:45;21.45;;;9.32;;
42912;SDS011;50720;54.324;18.558;2023-01-10T08:19:14;19.83;;;9.90;;
42912;SDS011;50720;54.324;18.558;2023-01-10T08:21:45;23.20;;;10.48;;
42912;SDS011;50720;54.324;18.558;2023-01-10T08:24:16;17.48;;;10.27;;
42912;SDS011;50720;54.324;18.558;2023-01-10T08:26:45;17.67;;;9.60;;
42912;SDS011;50720;54.324;18.558;2023-01-10T08:29:15;20.10;;;10.05;;
42912;SDS011;50720;54.324;18.558;2023-01-10T08:31:45;18.20;;;9.90;;
42912;SDS011;50720;54.324;18.558;2023-01-10T08:34:14;18.67;;;9.55;;
42912;SDS011;50720;54.324;18.558;2023-01-10T08:36:48;25.73;;;11.18;;
42912;SDS011;50720;54.324;18.558;2023-01-10T08:39:18;22.48;;;10.23;;
42912;SDS011;50720;54.324;18.558;2023-01-10T08:41:48;21.90;;;11.68;;
42912;SDS011;50720;54.324;18.558;2023-01-10T08:44:18;23.40;;;12.02;;
42912;SDS011;50720;54.324;18.558;2023-01-10T08:46:47;22.98;;;11.25;;
42912;SDS011;50720;54.324;18.558;2023-01-10T08:49:19;17.73;;;10.52;;
42912;SDS011;50720;54.324;18.558;2023-01-10T08:51:48;20.58;;;10.05;;
42912;SDS011;50720;54.324;18.558;2023-01-10T08:54:18;19.90;;;10.48;;
42912;SDS011;50720;54.324;18.558;2023-01-10T08:56:48;19.00;;;10.00;;
42912;SDS011;50720;54.324;18.558;2023-01-10T08:59:17;20.38;;;10.48;;
42912;SDS011;50720;54.324;18.558;2023-01-10T09:01:46;25.20;;;10.25;;
42912;SDS011;50720;54.324;18.558;2023-01-10T09:04:16;24.27;;;11.15;;
42912;SDS011;50720;54.324;18.558;2023-01-10T09:06:47;17.58;;;10.30;;
42912;SDS011;50720;54.324;18.558;2023-01-10T09:09:17;19.83;;;10.40;;
42912;SDS011;50720;54.324;18.558;2023-01-10T09:11:46;20.80;;;10.23;;
42912;SDS011;50720;54.324;18.558;2023-01-10T09:14:16;16.90;;;9.75;;
42912;SDS011;50720;54.324;18.558;2023-01-10T09:16:45;22.33;;;10.30;;
42912;SDS011;50720;54.324;18.558;2023-01-10T09:19:19;16.70;;;9.65;;
42912;SDS011;50720;54.324;18.558;2023-01-10T09:21:48;20.38;;;10.07;;
42912;SDS011;50720;54.324;18.558;2023-01-10T09:24:18;20.58;;;9.55;;
42912;SDS011;50720;54.324;18.558;2023-01-10T09:26:48;18.23;;;8.68;;
42912;SDS011;50720;54.324;18.558;2023-01-10T09:29:17;22.95;;;9.77;;
42912;SDS011;50720;54.324;18.558;2023-01-10T09:31:47;18.50;;;8.75;;
42912;SDS011;50720;54.324;18.558;2023-01-10T09:34:16;16.85;;;9.35;;
42912;SDS011;50720;54.324;18.558;2023-01-10T09:36:48;25.15;;;9.75;;
42912;SDS011;50720;54.324;18.558;2023-01-10T09:39:17;20.35;;;9.38;;
42912;SDS011;50720;54.324;18.558;2023-01-10T09:41:54;23.77;;;9.40;;
42912;SDS011;50720;54.324;18.558;2023-01-10T09:44:41;20.48;;;9.23;;
42912;SDS011;50720;54.324;18.558;2023-01-10T09:47:18;19.15;;;10.18;;
42912;SDS011;50720;54.324;18.558;2023-01-10T09:49:59;19.00;;;9.32;;
42912;SDS011;50720;54.324;18.558;2023-01-10T09:52:39;17.25;;;9.18;;
42912;SDS011;50720;54.324;18.558;2023-01-10T09:55:17;18.20;;;10.25;;
42912;SDS011;50720;54.324;18.558;2023-01-10T09:57:51;21.45;;;11.18;;
42912;SDS011;50720;54.324;18.558;2023-01-10T10:00:23;22.83;;;11.45;;
42912;SDS011;50720;54.324;18.558;2023-01-10T10:02:58;21.83;;;11.65;;
42912;SDS011;50720;54.324;18.558;2023-01-10T10:05:30;17.80;;;9.98;;
42912;SDS011;50720;54.324;18.558;2023-01-10T10:10:37;23.02;;;10.75;;
42912;SDS011;50720;54.324;18.558;2023-01-10T10:13:14;26.58;;;11.23;;
42912;SDS011;50720;54.324;18.558;2023-01-10T10:15:55;19.08;;;10.90;;
42912;SDS011;50720;54.324;18.558;2023-01-10T10:18:33;18.45;;;9.25;;
42912;SDS011;50720;54.324;18.558;2023-01-10T10:21:14;19.98;;;11.52;;
42912;SDS011;50720;54.324;18.558;2023-01-10T10:23:54;23.25;;;11.85;;
42912;SDS011;50720;54.324;18.558;2023-01-10T10:26:44;17.67;;;10.55;;
42912;SDS011;50720;54.324;18.558;2023-01-10T10:29:26;22.77;;;11.25;;
42912;SDS011;50720;54.324;18.558;2023-01-10T10:32:22;20.00;;;11.32;;
42912;SDS011;50720;54.324;18.558;2023-01-10T10:35:07;26.95;;;12.25;;
42912;SDS011;50720;54.324;18.558;2023-01-10T10:37:44;23.17;;;10.43;;
42912;SDS011;50720;54.324;18.558;2023-01-10T10:40:18;17.05;;;9.98;;
42912;SDS011;50720;54.324;18.558;2023-01-10T10:42:49;19.27;;;10.25;;
42912;SDS011;50720;54.324;18.558;2023-01-10T10:45:21;25.40;;;11.95;;
42912;SDS011;50720;54.324;18.558;2023-01-10T10:47:57;19.25;;;10.93;;
42912;SDS011;50720;54.324;18.558;2023-01-10T10:50:33;20.48;;;10.77;;
42912;SDS011;50720;54.324;18.558;2023-01-10T10:53:10;21.27;;;10.85;;
42912;SDS011;50720;54.324;18.558;2023-01-10T10:55:39;17.13;;;10.23;;
42912;SDS011;50720;54.324;18.558;2023-01-10T10:58:09;19.60;;;9.77;;
42912;SDS011;50720;54.324;18.558;2023-01-10T11:03:15;22.90;;;11.18;;
42912;SDS011;50720;54.324;18.558;2023-01-10T11:05:56;20.90;;;9.85;;
42912;SDS011;50720;54.324;18.558;2023-01-10T11:08:29;17.55;;;10.48;;
42912;SDS011;50720;54.324;18.558;2023-01-10T11:10:59;19.00;;;10.20;;
42912;SDS011;50720;54.324;18.558;2023-01-10T11:13:39;18.88;;;10.68;;
42912;SDS011;50720;54.324;18.558;2023-01-10T11:16:22;21.67;;;10.15;;
42912;SDS011;50720;54.324;18.558;2023-01-10T11:21:42;24.35;;;10.80;;
42912;SDS011;50720;54.324;18.558;2023-01-10T11:24:19;22.00;;;10.55;;
42912;SDS011;50720;54.324;18.558;2023-01-10T11:27:00;18.38;;;10.50;;
42912;SDS011;50720;54.324;18.558;2023-01-10T11:29:35;20.92;;;10.23;;
42912;SDS011;50720;54.324;18.558;2023-01-10T11:32:08;21.98;;;10.27;;
42912;SDS011;50720;54.324;18.558;2023-01-10T11:34:41;21.42;;;11.80;;
42912;SDS011;50720;54.324;18.558;2023-01-10T11:37:20;25.17;;;10.65;;
42912;SDS011;50720;54.324;18.558;2023-01-10T11:40:17;23.38;;;13.07;;
42912;SDS011;50720;54.324;18.558;2023-01-10T11:42:50;18.70;;;11.90;;
42912;SDS011;50720;54.324;18.558;2023-01-10T11:45:31;22.00;;;12.75;;
42912;SDS011;50720;54.324;18.558;2023-01-10T11:48:06;25.52;;;12.50;;
42912;SDS011;50720;54.324;18.558;2023-01-10T11:50:38;24.00;;;11.70;;
42912;SDS011;50720;54.324;18.558;2023-01-10T11:53:30;20.38;;;11.40;;
42912;SDS011;50720;54.324;18.558;2023-01-10T11:56:07;20.88;;;11.77;;
42912;SDS011;50720;54.324;18.558;2023-01-10T11:58:38;18.13;;;11.00;;
42912;SDS011;50720;54.324;18.558;2023-01-10T12:01:23;23.08;;;10.73;;
42912;SDS011;50720;54.324;18.558;2023-01-10T12:03:59;20.75;;;10.88;;
42912;SDS011;50720;54.324;18.558;2023-01-10T12:06:29;18.55;;;10.65;;
42912;SDS011;50720;54.324;18.558;2023-01-10T12:08:59;22.70;;;10.10;;
42912;SDS011;50720;54.324;18.558;2023-01-10T12:11:31;24.75;;;10.10;;
42912;SDS011;50720;54.324;18.558;2023-01-10T12:14:08;21.92;;;10.13;;
42912;SDS011;50720;54.324;18.558;2023-01-10T12:16:56;17.98;;;9.85;;
42912;SDS011;50720;54.324;18.558;2023-01-10T12:19:28;14.87;;;9.10;;
42912;SDS011;50720;54.324;18.558;2023-01-10T12:21:58;14.82;;;8.48;;
42912;SDS011;50720;54.324;18.558;2023-01-10T12:24:35;13.40;;;8.40;;
42912;SDS011;50720;54.324;18.558;2023-01-10T12:27:10;17.17;;;8.77;;
42912;SDS011;50720;54.324;18.558;2023-01-10T12:29:43;19.83;;;10.43;;
42912;SDS011;50720;54.324;18.558;2023-01-10T12:32:27;21.17;;;10.45;;
42912;SDS011;50720;54.324;18.558;2023-01-10T12:35:03;19.50;;;10.77;;
42912;SDS011;50720;54.324;18.558;2023-01-10T12:37:39;18.05;;;11.18;;
42912;SDS011;50720;54.324;18.558;2023-01-10T12:40:14;21.58;;;11.20;;
42912;SDS011;50720;54.324;18.558;2023-01-10T12:42:52;22.08;;;12.02;;
42912;SDS011;50720;54.324;18.558;2023-01-10T12:45:45;23.85;;;12.98;;
42912;SDS011;50720;54.324;18.558;2023-01-10T12:48:21;26.75;;;13.00;;
42912;SDS011;50720;54.324;18.558;2023-01-10T12:50:59;31.30;;;14.48;;
42912;SDS011;50720;54.324;18.558;2023-01-10T12:53:32;29.20;;;16.25;;
42912;SDS011;50720;54.324;18.558;2023-01-10T12:56:07;25.13;;;15.25;;
42912;SDS011;50720;54.324;18.558;2023-01-10T12:58:42;30.33;;;16.17;;
42912;SDS011;50720;54.324;18.558;2023-01-10T13:01:14;29.33;;;16.63;;
42912;SDS011;50720;54.324;18.558;2023-01-10T13:03:45;34.33;;;17.50;;
42912;SDS011;50720;54.324;18.558;2023-01-10T13:06:23;34.75;;;18.17;;
42912;SDS011;50720;54.324;18.558;2023-01-10T13:08:57;38.92;;;19.33;;
42912;SDS011;50720;54.324;18.558;2023-01-10T13:11:32;41.90;;;21.30;;
42912;SDS011;50720;54.324;18.558;2023-01-10T13:14:10;38.88;;;20.20;;
42912;SDS011;50720;54.324;18.558;2023-01-10T13:16:44;42.53;;;22.40;;
42912;SDS011;50720;54.324;18.558;2023-01-10T13:19:21;39.20;;;21.20;;
42912;SDS011;50720;54.324;18.558;2023-01-10T13:24:54;41.45;;;20.30;;
42912;SDS011;50720;54.324;18.558;2023-01-10T13:27:29;43.63;;;21.38;;
42912;SDS011;50720;54.324;18.558;2023-01-10T13:30:02;38.22;;;19.35;;
42912;SDS011;50720;54.324;18.558;2023-01-10T13:32:33;44.83;;;21.60;;
42912;SDS011;50720;54.324;18.558;2023-01-10T13:35:08;35.40;;;21.25;;
42912;SDS011;50720;54.324;18.558;2023-01-10T13:37:41;39.63;;;21.40;;
42912;SDS011;50720;54.324;18.558;2023-01-10T13:40:18;41.60;;;21.25;;
42912;SDS011;50720;54.324;18.558;2023-01-10T13:55:10;41.85;;;20.48;;
42912;SDS011;50720;54.324;18.558;2023-01-10T13:57:53;38.95;;;19.92;;
42912;SDS011;50720;54.324;18.558;2023-01-10T14:00:25;35.47;;;20.38;;
42912;SDS011;50720;54.324;18.558;2023-01-10T14:03:38;38.28;;;19.63;;
42912;SDS011;50720;54.324;18.558;2023-01-10T14:09:30;44.35;;;21.40;;
42912;SDS011;50720;54.324;18.558;2023-01-10T14:12:06;45.55;;;21.35;;
42912;SDS011;50720;54.324;18.558;2023-01-10T14:14:49;49.30;;;24.17;;
42912;SDS011;50720;54.324;18.558;2023-01-10T14:17:21;48.72;;;23.40;;
42912;SDS011;50720;54.324;18.558;2023-01-10T14:19:59;46.05;;;22.60;;
42912;SDS011;50720;54.324;18.558;2023-01-10T14:22:53;39.50;;;20.80;;
42912;SDS011;50720;54.324;18.558;2023-01-10T14:25:27;48.15;;;21.65;;
42912;SDS011;50720;54.324;18.558;2023-01-10T14:27:59;45.95;;;23.85;;
42912;SDS011;50720;54.324;18.558;2023-01-10T14:30:30;47.70;;;21.67;;
42912;SDS011;50720;54.324;18.558;2023-01-10T14:33:03;50.90;;;22.42;;
42912;SDS011;50720;54.324;18.558;2023-01-10T14:35:42;51.33;;;22.83;;
42912;SDS011;50720;54.324;18.558;2023-01-10T14:38:16;50.95;;;21.75;;
42912;SDS011;50720;54.324;18.558;2023-01-10T14:40:50;50.53;;;21.80;;
42912;SDS011;50720;54.324;18.558;2023-01-10T14:43:26;55.65;;;25.60;;
42912;SDS011;50720;54.324;18.558;2023-01-10T14:46:00;50.35;;;22.83;;
42912;SDS011;50720;54.324;18.558;2023-01-10T14:48:34;54.17;;;22.77;;
42912;SDS011;50720;54.324;18.558;2023-01-10T14:51:16;54.30;;;22.02;;
42912;SDS011;50720;54.324;18.558;2023-01-10T14:53:53;46.38;;;19.70;;
42912;SDS011;50720;54.324;18.558;2023-01-10T14:56:25;42.65;;;19.30;;
42912;SDS011;50720;54.324;18.558;2023-01-10T14:58:56;48.70;;;20.92;;
42912;SDS011;50720;54.324;18.558;2023-01-10T15:01:26;46.15;;;20.85;;
42912;SDS011;50720;54.324;18.558;2023-01-10T15:03:57;52.45;;;23.05;;
42912;SDS011;50720;54.324;18.558;2023-01-10T15:06:30;44.63;;;17.63;;
42912;SDS011;50720;54.324;18.558;2023-01-10T15:09:18;50.42;;;19.33;;
42912;SDS011;50720;54.324;18.558;2023-01-10T15:11:49;48.88;;;21.02;;
42912;SDS011;50720;54.324;18.558;2023-01-10T15:14:21;46.78;;;20.77;;
42912;SDS011;50720;54.324;18.558;2023-01-10T15:16:54;43.95;;;18.35;;
42912;SDS011;50720;54.324;18.558;2023-01-10T15:19:28;38.85;;;18.30;;
42912;SDS011;50720;54.324;18.558;2023-01-10T15:22:03;45.85;;;19.17;;
42912;SDS011;50720;54.324;18.558;2023-01-10T15:24:55;43.35;;;18.45;;
42912;SDS011;50720;54.324;18.558;2023-01-10T15:27:26;51.30;;;19.42;;
42912;SDS011;50720;54.324;18.558;2023-01-10T15:29:56;46.50;;;20.93;;